createdAt,value
2022-12-15T00:02:19.649Z,14.02
2022-12-15T00:05:05.869Z,13.05
2022-12-15T00:07:52.334Z,13.00
2022-12-15T00:10:38.211Z,13.80
2022-12-15T00:13:30.807Z,13.32
2022-12-15T00:16:17.345Z,11.02
2022-12-15T00:19:03.131Z,12.73
2022-12-15T00:21:48.595Z,12.27
2022-12-15T00:24:33.864Z,11.70
2022-12-15T00:27:19.788Z,11.70
2022-12-15T00:30:05.665Z,13.65
2022-12-15T00:32:51.659Z,11.50
2022-12-15T00:35:37.536Z,13.05
2022-12-15T00:38:27.847Z,14.35
2022-12-15T00:40:59.203Z,14.73
2022-12-15T00:43:30.941Z,13.68
2022-12-15T00:46:17.643Z,14.10
2022-12-15T00:48:45.191Z,14.30
2022-12-15T00:51:12.730Z,12.90
2022-12-15T00:53:58.655Z,13.60
2022-12-15T00:56:44.757Z,13.98
2022-12-15T00:59:32.473Z,13.35
2022-12-15T01:02:19.040Z,14.30
2022-12-15T01:05:04.928Z,12.57
2022-12-15T01:07:50.763Z,14.50
2022-12-15T01:10:37.914Z,13.45
2022-12-15T01:13:24.258Z,13.82
2022-12-15T01:16:10.290Z,13.48
2022-12-15T01:18:56.213Z,12.85
2022-12-15T01:21:25.572Z,12.82
2022-12-15T01:23:53.295Z,13.38
2022-12-15T01:26:20.616Z,14.35
2022-12-15T01:28:47.962Z,13.25
2022-12-15T01:31:15.305Z,12.63
2022-12-15T01:33:43.775Z,13.43
2022-12-15T01:36:11.428Z,13.65
2022-12-15T01:38:38.709Z,13.05
2022-12-15T01:41:09.746Z,13.02
2022-12-15T01:43:39.516Z,13.77
2022-12-15T01:46:16.067Z,12.27
2022-12-15T01:48:49.518Z,11.82
2022-12-15T01:51:30.378Z,14.13
2022-12-15T01:54:00.777Z,13.77
2022-12-15T01:56:37.048Z,12.57
2022-12-15T01:59:05.755Z,13.13
2022-12-15T02:01:33.260Z,14.30
2022-12-15T02:04:01.053Z,13.40
2022-12-15T02:06:28.934Z,13.32
2022-12-15T02:09:00.319Z,11.82
2022-12-15T02:11:27.559Z,12.23
2022-12-15T02:14:09.511Z,12.70
2022-12-15T02:16:55.231Z,13.10
2022-12-15T02:19:22.502Z,12.32
2022-12-15T02:21:49.914Z,12.15
2022-12-15T02:24:17.313Z,12.05
2022-12-15T02:27:12.263Z,11.32
2022-12-15T02:30:17.149Z,10.98
2022-12-15T02:32:59.141Z,8.77
2022-12-15T02:35:29.542Z,8.65
2022-12-15T02:37:56.897Z,9.55
2022-12-15T02:40:24.183Z,9.57
2022-12-15T02:42:55.374Z,11.32
2022-12-15T02:45:35.566Z,11.40
2022-12-15T02:48:23.682Z,9.13
2022-12-15T02:50:58.235Z,10.82
2022-12-15T02:53:31.998Z,10.60
2022-12-15T02:56:20.988Z,9.77
2022-12-15T02:58:57.574Z,11.10
2022-12-15T03:01:28.071Z,9.68
2022-12-15T03:03:56.928Z,10.63
2022-12-15T03:06:25.784Z,11.18
2022-12-15T03:08:53.202Z,9.52
2022-12-15T03:11:20.514Z,10.77
2022-12-15T03:13:47.818Z,10.95
2022-12-15T03:16:17.285Z,9.80
2022-12-15T03:18:44.625Z,10.88
2022-12-15T03:21:11.957Z,10.70
2022-12-15T03:23:39.236Z,10.65
2022-12-15T03:26:06.692Z,10.32
2022-12-15T03:28:34.169Z,9.65
2022-12-15T03:31:01.510Z,10.68
2022-12-15T03:33:29.268Z,10.13
2022-12-15T03:35:56.833Z,10.80
2022-12-15T03:38:24.320Z,10.13
2022-12-15T03:40:51.611Z,8.93
2022-12-15T03:43:18.951Z,11.07
2022-12-15T03:45:46.299Z,10.57
2022-12-15T03:48:13.602Z,11.20
2022-12-15T03:50:40.923Z,10.88
2022-12-15T03:53:08.646Z,9.63
2022-12-15T03:55:35.961Z,8.85
2022-12-15T03:58:03.353Z,11.23
2022-12-15T04:00:30.690Z,8.98
2022-12-15T04:02:58.178Z,10.13
2022-12-15T04:05:27.540Z,10.05
2022-12-15T04:07:56.142Z,9.77
2022-12-15T04:10:26.282Z,10.10
2022-12-15T04:13:08.339Z,10.25
2022-12-15T04:15:37.962Z,10.23
2022-12-15T04:18:09.934Z,10.63
2022-12-15T04:20:39.009Z,10.13
2022-12-15T04:23:09.615Z,10.35
2022-12-15T04:25:55.973Z,10.55
2022-12-15T04:28:41.980Z,10.35
2022-12-15T04:31:37.561Z,11.25
2022-12-15T04:34:25.666Z,11.48
2022-12-15T04:37:12.447Z,11.05
2022-12-15T04:40:03.422Z,11.30
2022-12-15T04:42:51.015Z,11.43
2022-12-15T04:45:39.936Z,10.88
2022-12-15T04:48:25.799Z,10.20
2022-12-15T04:51:11.612Z,10.45
2022-12-15T04:53:57.842Z,10.73
2022-12-15T04:56:43.571Z,10.27
2022-12-15T04:59:29.489Z,10.52
2022-12-15T05:02:15.378Z,11.38
2022-12-15T05:05:01.255Z,9.45
2022-12-15T05:07:47.194Z,9.48
2022-12-15T05:10:33.057Z,11.00
2022-12-15T05:13:26.174Z,10.45
2022-12-15T05:16:12.722Z,10.02
2022-12-15T05:18:59.255Z,10.52
2022-12-15T05:21:44.969Z,10.73
2022-12-15T05:24:31.542Z,9.57
2022-12-15T05:27:17.518Z,10.23
2022-12-15T05:30:03.510Z,10.70
2022-12-15T05:32:32.979Z,9.27
2022-12-15T05:35:01.322Z,9.93
2022-12-15T05:37:28.924Z,10.20
2022-12-15T05:39:56.269Z,9.77
2022-12-15T05:42:23.712Z,9.38
2022-12-15T05:44:51.246Z,9.73
2022-12-15T05:47:18.589Z,10.20
2022-12-15T05:49:45.972Z,10.25
2022-12-15T05:52:13.403Z,10.73
2022-12-15T05:54:40.739Z,11.27
2022-12-15T05:57:08.013Z,11.20
2022-12-15T05:59:35.394Z,11.32
2022-12-15T06:02:02.879Z,12.70
2022-12-15T06:04:30.488Z,12.18
2022-12-15T06:06:57.885Z,11.82
2022-12-15T06:09:25.283Z,13.13
2022-12-15T06:11:52.606Z,13.07
2022-12-15T06:14:19.925Z,13.48
2022-12-15T06:16:50.251Z,13.77
2022-12-15T06:19:19.925Z,14.30
2022-12-15T06:21:47.305Z,14.15
2022-12-15T06:24:14.585Z,15.13
2022-12-15T06:26:41.910Z,12.70
2022-12-15T06:29:11.391Z,15.30
2022-12-15T06:31:42.849Z,15.48
2022-12-15T06:34:13.730Z,14.10
2022-12-15T06:36:41.305Z,13.23
2022-12-15T06:39:11.324Z,13.38
2022-12-15T06:44:06.374Z,12.57
2022-12-15T06:46:37.265Z,11.18
2022-12-15T06:49:04.790Z,13.48
2022-12-15T06:51:32.816Z,10.88
2022-12-15T06:54:00.189Z,13.43
2022-12-15T06:56:34.614Z,14.85
2022-12-15T06:59:03.541Z,13.65
2022-12-15T07:01:31.428Z,12.85
2022-12-15T07:04:03.057Z,12.90
2022-12-15T07:06:36.568Z,11.65
2022-12-15T07:09:04.766Z,14.02
2022-12-15T07:11:32.190Z,13.80
2022-12-15T07:13:59.597Z,14.98
2022-12-15T07:16:26.983Z,18.55
2022-12-15T07:18:54.421Z,18.85
2022-12-15T07:21:21.686Z,18.67
2022-12-15T07:23:57.572Z,15.23
2022-12-15T07:26:25.708Z,14.50
2022-12-15T07:28:53.787Z,14.75
2022-12-15T07:31:21.966Z,17.30
2022-12-15T07:33:49.498Z,18.17
2022-12-15T07:36:16.990Z,18.17
2022-12-15T07:38:49.977Z,18.92
2022-12-15T07:41:19.736Z,16.33
2022-12-15T07:43:47.888Z,16.48
2022-12-15T07:46:15.798Z,15.20
2022-12-15T07:48:43.376Z,15.68
2022-12-15T07:51:18.881Z,13.07
2022-12-15T07:53:47.269Z,12.77
2022-12-15T07:56:15.407Z,14.18
2022-12-15T07:58:43.133Z,12.65
2022-12-15T08:01:13.250Z,14.98
2022-12-15T08:03:41.506Z,16.20
2022-12-15T08:06:13.425Z,15.95
2022-12-15T08:08:50.777Z,14.75
2022-12-15T08:11:18.877Z,13.27
2022-12-15T08:14:03.528Z,15.13
2022-12-15T08:16:33.357Z,15.00
2022-12-15T08:19:01.297Z,16.10
2022-12-15T08:21:29.121Z,13.73
2022-12-15T08:23:56.579Z,13.13
2022-12-15T08:26:31.607Z,14.20
2022-12-15T08:32:23.341Z,14.15
2022-12-15T08:34:50.992Z,14.05
2022-12-15T08:37:21.361Z,15.00
2022-12-15T08:39:49.302Z,14.88
2022-12-15T08:42:20.317Z,14.10
2022-12-15T08:47:35.365Z,14.48
2022-12-15T08:50:03.252Z,13.93
2022-12-15T08:52:30.883Z,15.32
2022-12-15T08:55:03.953Z,14.18
2022-12-15T08:57:35.150Z,14.98
2022-12-15T09:02:39.104Z,15.25
2022-12-15T09:05:09.965Z,14.73
2022-12-15T09:07:40.015Z,15.38
2022-12-15T09:12:34.637Z,13.88
2022-12-15T09:15:01.970Z,14.57
2022-12-15T09:17:29.392Z,14.23
2022-12-15T09:19:56.783Z,16.38
2022-12-15T09:22:24.133Z,15.80
2022-12-15T09:24:51.532Z,15.27
2022-12-15T09:27:18.868Z,15.63
2022-12-15T09:29:46.150Z,14.52
2022-12-15T09:32:14.563Z,14.43
2022-12-15T09:34:42.146Z,15.40
2022-12-15T09:37:09.470Z,16.35
2022-12-15T09:39:39.860Z,17.55
2022-12-15T09:42:07.181Z,13.80
2022-12-15T09:44:34.528Z,14.60
2022-12-15T09:47:07.913Z,15.52
2022-12-15T09:49:55.685Z,15.18
2022-12-15T09:52:31.357Z,14.93
2022-12-15T09:54:59.292Z,16.50
2022-12-15T09:57:56.171Z,13.50
2022-12-15T10:00:32.938Z,14.15
2022-12-15T10:03:40.742Z,14.80
2022-12-15T10:06:20.092Z,15.52
2022-12-15T10:08:58.517Z,15.38
2022-12-15T10:11:44.296Z,15.38
2022-12-15T10:14:23.506Z,15.00
2022-12-15T10:16:54.759Z,14.70
2022-12-15T10:19:28.548Z,15.00
2022-12-15T10:21:58.275Z,16.77
2022-12-15T10:25:07.952Z,15.73
2022-12-15T10:27:54.756Z,17.60
2022-12-15T10:30:22.428Z,15.05
2022-12-15T10:32:55.916Z,15.15
2022-12-15T10:35:28.771Z,15.52
2022-12-15T10:38:00.403Z,16.15
2022-12-15T10:40:56.780Z,15.60
2022-12-15T10:43:24.077Z,17.48
2022-12-15T10:46:02.100Z,15.85
2022-12-15T10:48:29.934Z,16.30
2022-12-15T10:51:15.696Z,15.85
2022-12-15T10:53:50.225Z,15.82
2022-12-15T10:59:42.203Z,15.18
2022-12-15T11:06:25.144Z,15.93
2022-12-15T11:08:55.730Z,15.95
2022-12-15T11:11:45.535Z,16.05
2022-12-15T11:14:21.409Z,15.68
2022-12-15T11:17:06.958Z,14.40
2022-12-15T11:22:55.347Z,14.48
2022-12-15T11:25:44.822Z,14.93
2022-12-15T11:28:38.892Z,15.27
2022-12-15T11:31:28.977Z,14.27
2022-12-15T11:33:56.428Z,13.63
2022-12-15T11:36:23.717Z,15.52
2022-12-15T11:38:58.108Z,14.82
2022-12-15T11:41:59.123Z,14.85
2022-12-15T11:44:37.173Z,14.40
2022-12-15T11:47:45.025Z,13.75
2022-12-15T11:50:33.611Z,14.88
2022-12-15T11:53:33.263Z,14.63
2022-12-15T11:56:32.872Z,15.38
2022-12-15T11:59:27.394Z,15.07
2022-12-15T12:02:02.377Z,13.95
2022-12-15T12:05:19.347Z,16.00
2022-12-15T12:07:58.017Z,15.07
2022-12-15T12:10:28.590Z,17.35
2022-12-15T12:12:56.055Z,16.25
2022-12-15T12:15:41.897Z,17.10
2022-12-15T12:18:34.838Z,16.38
2022-12-15T12:25:16.737Z,16.48
2022-12-15T12:28:05.695Z,16.30
2022-12-15T12:30:43.368Z,17.10
2022-12-15T12:33:34.964Z,16.85
2022-12-15T12:36:13.393Z,17.08
2022-12-15T12:38:48.793Z,18.02
2022-12-15T12:41:36.181Z,16.33
2022-12-15T12:44:29.256Z,16.92
2022-12-15T12:46:58.786Z,18.52
2022-12-15T12:52:30.070Z,17.17
2022-12-15T12:55:14.523Z,17.48
2022-12-15T12:57:43.611Z,17.63
2022-12-15T13:00:22.395Z,15.63
2022-12-15T13:02:53.095Z,16.42
2022-12-15T13:05:38.150Z,17.77
2022-12-15T13:08:05.381Z,17.30
2022-12-15T13:10:40.862Z,16.65
2022-12-15T13:13:36.547Z,16.80
2022-12-15T13:16:26.713Z,16.17
2022-12-15T13:18:57.921Z,15.73
2022-12-15T13:21:44.955Z,16.48
2022-12-15T13:24:29.759Z,16.60
2022-12-15T13:27:08.994Z,17.23
2022-12-15T13:29:53.873Z,16.13
2022-12-15T13:32:29.489Z,14.15
2022-12-15T13:34:57.268Z,15.25
2022-12-15T13:37:54.292Z,15.80
2022-12-15T13:40:35.475Z,15.73
2022-12-15T13:43:05.596Z,14.20
2022-12-15T13:45:36.834Z,16.20
2022-12-15T13:48:39.397Z,16.67
2022-12-15T13:51:12.924Z,15.65
2022-12-15T13:53:49.718Z,16.67
2022-12-15T13:56:45.934Z,17.00
2022-12-15T13:59:28.469Z,16.50
2022-12-15T14:01:56.085Z,15.32
2022-12-15T14:04:23.920Z,15.68
2022-12-15T14:06:51.161Z,16.35
2022-12-15T14:09:46.869Z,15.32
2022-12-15T14:12:16.446Z,17.85
2022-12-15T14:14:49.175Z,16.30
2022-12-15T14:17:18.753Z,16.55
2022-12-15T14:19:50.992Z,16.88
2022-12-15T14:22:30.314Z,16.70
2022-12-15T14:25:23.820Z,16.17
2022-12-15T14:27:51.644Z,17.80
2022-12-15T14:30:30.481Z,17.25
2022-12-15T14:33:08.368Z,17.65
2022-12-15T14:35:44.450Z,17.50
2022-12-15T14:38:25.845Z,15.75
2022-12-15T14:40:57.470Z,14.95
2022-12-15T14:43:33.264Z,16.30
2022-12-15T14:46:13.923Z,16.88
2022-12-15T14:48:57.596Z,16.83
2022-12-15T14:51:31.487Z,15.93
2022-12-15T14:54:04.460Z,16.08
2022-12-15T15:03:05.150Z,17.38
2022-12-15T15:05:29.010Z,16.27
2022-12-15T15:07:56.985Z,16.88
2022-12-15T15:10:29.451Z,16.98
2022-12-15T15:12:56.462Z,17.75
2022-12-15T15:15:26.626Z,17.02
2022-12-15T15:20:24.462Z,15.35
2022-12-15T15:23:19.011Z,15.68
2022-12-15T15:25:56.658Z,15.73
2022-12-15T15:28:28.978Z,16.50
2022-12-15T15:31:05.417Z,15.88
2022-12-15T15:33:33.109Z,17.00
2022-12-15T15:36:02.232Z,17.40
2022-12-15T15:38:35.450Z,15.98
2022-12-15T15:41:22.759Z,15.15
2022-12-15T15:43:49.599Z,16.92
2022-12-15T15:46:21.355Z,18.38
2022-12-15T15:48:55.434Z,18.50
2022-12-15T15:51:24.362Z,19.85
2022-12-15T15:53:51.861Z,19.17
2022-12-15T15:56:19.538Z,19.55
2022-12-15T15:58:46.790Z,19.55
2022-12-15T16:01:13.885Z,19.52
2022-12-15T16:03:41.872Z,16.73
2022-12-15T16:06:17.251Z,16.88
2022-12-15T16:08:45.562Z,18.05
2022-12-15T16:11:12.884Z,18.30
2022-12-15T16:13:40.244Z,16.25
2022-12-15T16:16:15.071Z,18.38
2022-12-15T16:18:41.991Z,18.15
2022-12-15T16:21:12.288Z,16.92
2022-12-15T16:23:39.559Z,17.40
2022-12-15T16:26:06.822Z,17.55
2022-12-15T16:28:34.135Z,16.65
2022-12-15T16:31:01.604Z,16.60
2022-12-15T16:33:28.683Z,16.67
2022-12-15T16:35:55.692Z,17.00
2022-12-15T16:38:23.002Z,16.38
2022-12-15T16:40:50.386Z,20.30
2022-12-15T16:43:19.772Z,21.85
2022-12-15T16:45:49.581Z,23.05
2022-12-15T16:48:17.175Z,21.45
2022-12-15T16:50:48.368Z,20.05
2022-12-15T16:53:37.628Z,19.33
2022-12-15T16:56:07.154Z,17.50
2022-12-15T16:58:36.086Z,20.75
2022-12-15T17:01:03.992Z,18.63
2022-12-15T17:03:31.148Z,18.38
2022-12-15T17:06:06.458Z,18.52
2022-12-15T17:08:49.371Z,19.77
2022-12-15T17:11:21.999Z,18.58
2022-12-15T17:13:51.426Z,21.25
2022-12-15T17:16:20.752Z,19.95
2022-12-15T17:18:48.360Z,18.60
2022-12-15T17:21:32.120Z,17.55
2022-12-15T17:24:07.764Z,18.55
2022-12-15T17:26:36.804Z,19.45
2022-12-15T17:29:09.461Z,18.65
2022-12-15T17:31:36.504Z,18.77
2022-12-15T17:34:24.557Z,16.85
2022-12-15T17:36:52.110Z,14.80
2022-12-15T17:39:20.627Z,15.77
2022-12-15T17:42:04.583Z,14.75
2022-12-15T17:44:37.482Z,15.10
2022-12-15T17:47:30.614Z,16.05
2022-12-15T17:49:58.112Z,16.50
2022-12-15T17:52:29.205Z,15.45
2022-12-15T17:54:57.264Z,15.02
2022-12-15T17:57:24.231Z,16.60
2022-12-15T17:59:51.481Z,15.15
2022-12-15T18:02:18.562Z,14.45
2022-12-15T18:04:45.895Z,15.70
2022-12-15T18:07:23.784Z,17.10
2022-12-15T18:09:52.095Z,14.30
2022-12-15T18:12:24.589Z,14.38
2022-12-15T18:14:52.353Z,14.18
2022-12-15T18:17:19.969Z,14.32
2022-12-15T18:19:47.264Z,12.85
2022-12-15T18:22:20.411Z,14.65
2022-12-15T18:24:47.699Z,14.25
2022-12-15T18:27:24.093Z,13.88
2022-12-15T18:29:51.511Z,14.57
2022-12-15T18:32:20.273Z,13.70
2022-12-15T18:34:47.883Z,14.45
2022-12-15T18:37:20.217Z,17.92
2022-12-15T18:39:47.419Z,17.15
2022-12-15T18:42:19.626Z,20.05
2022-12-15T18:44:50.075Z,18.58
2022-12-15T18:47:18.983Z,18.15
2022-12-15T18:49:46.674Z,20.48
2022-12-15T18:52:26.512Z,19.00
2022-12-15T18:54:55.821Z,20.15
2022-12-15T18:57:30.320Z,20.33
2022-12-15T19:00:08.005Z,20.60
2022-12-15T19:02:35.562Z,19.33
2022-12-15T19:05:02.500Z,19.35
2022-12-15T19:07:29.423Z,22.25
2022-12-15T19:09:56.472Z,24.98
2022-12-15T19:12:23.933Z,25.38
2022-12-15T19:14:51.838Z,23.42
2022-12-15T19:17:40.253Z,24.65
2022-12-15T19:20:46.230Z,23.40
2022-12-15T19:23:15.263Z,21.88
2022-12-15T19:25:43.686Z,19.92
2022-12-15T19:28:23.649Z,20.38
2022-12-15T19:30:52.055Z,19.08
2022-12-15T19:33:19.632Z,20.52
2022-12-15T19:35:50.867Z,20.15
2022-12-15T19:38:24.781Z,19.27
2022-12-15T19:40:55.897Z,19.70
2022-12-15T19:43:24.570Z,20.15
2022-12-15T19:45:52.680Z,21.88
2022-12-15T19:48:23.830Z,21.48
2022-12-15T19:50:52.226Z,21.60
2022-12-15T19:53:28.595Z,21.50
2022-12-15T19:56:01.631Z,21.33
2022-12-15T19:58:30.163Z,21.27
2022-12-15T20:01:04.563Z,20.80
2022-12-15T20:03:32.926Z,19.30
2022-12-15T20:06:01.703Z,16.45
2022-12-15T20:08:34.150Z,16.05
2022-12-15T20:11:01.399Z,15.65
2022-12-15T20:13:29.376Z,17.35
2022-12-15T20:15:56.642Z,17.23
2022-12-15T20:18:23.945Z,16.10
2022-12-15T20:20:51.397Z,15.70
2022-12-15T20:23:26.333Z,15.32
2022-12-15T20:25:54.290Z,15.23
2022-12-15T20:28:25.959Z,15.32
2022-12-15T20:30:53.512Z,16.48
2022-12-15T20:33:20.671Z,17.80
2022-12-15T20:35:49.079Z,15.77
2022-12-15T20:38:29.334Z,17.35
2022-12-15T20:40:56.552Z,17.65
2022-12-15T20:43:24.493Z,18.85
2022-12-15T20:46:07.522Z,16.13
2022-12-15T20:48:36.855Z,17.98
2022-12-15T20:51:09.209Z,18.02
2022-12-15T20:53:38.019Z,17.02
2022-12-15T20:56:06.331Z,18.15
2022-12-15T20:58:40.770Z,18.70
2022-12-15T21:01:19.443Z,17.73
2022-12-15T21:03:47.135Z,16.48
2022-12-15T21:06:14.707Z,17.33
2022-12-15T21:08:41.843Z,17.00
2022-12-15T21:11:21.376Z,17.08
2022-12-15T21:13:49.473Z,17.42
2022-12-15T21:16:26.048Z,16.98
2022-12-15T21:21:44.953Z,19.10
2022-12-15T21:24:32.220Z,19.45
2022-12-15T21:26:59.087Z,18.60
2022-12-15T21:29:28.615Z,19.42
2022-12-15T21:31:55.879Z,20.70
2022-12-15T21:34:23.252Z,17.88
2022-12-15T21:36:55.330Z,19.13
2022-12-15T21:39:29.306Z,19.00
2022-12-15T21:41:59.718Z,21.48
2022-12-15T21:44:27.007Z,19.98
2022-12-15T21:46:54.659Z,18.00
2022-12-15T21:49:21.799Z,17.13
2022-12-15T21:52:00.366Z,17.83
2022-12-15T21:54:31.816Z,19.20
2022-12-15T21:57:00.510Z,17.30
2022-12-15T21:59:30.532Z,20.38
2022-12-15T22:04:30.392Z,16.88
2022-12-15T22:06:57.327Z,17.20
2022-12-15T22:09:24.620Z,17.48
2022-12-15T22:11:55.763Z,17.85
2022-12-15T22:14:29.328Z,15.93
2022-12-15T22:16:57.192Z,15.77
2022-12-15T22:19:24.494Z,16.80
2022-12-15T22:21:51.986Z,17.55
2022-12-15T22:24:19.572Z,17.08
2022-12-15T22:26:47.180Z,16.73
2022-12-15T22:29:20.644Z,15.50
2022-12-15T22:31:49.483Z,17.23
2022-12-15T22:34:21.966Z,17.42
2022-12-15T22:36:50.040Z,16.15
2022-12-15T22:39:18.854Z,15.63
2022-12-15T22:41:49.916Z,16.98
2022-12-15T22:44:23.864Z,16.38
2022-12-15T22:46:52.400Z,15.38
2022-12-15T22:49:24.115Z,16.75
2022-12-15T22:51:51.579Z,17.00
2022-12-15T22:54:27.012Z,16.25
2022-12-15T22:57:05.993Z,15.50
2022-12-15T22:59:41.268Z,16.27
2022-12-15T23:02:09.063Z,16.40
2022-12-15T23:04:36.830Z,14.98
2022-12-15T23:07:05.713Z,16.10
2022-12-15T23:09:33.025Z,14.80
2022-12-15T23:12:00.347Z,14.80
2022-12-15T23:14:54.161Z,14.50
2022-12-15T23:17:22.140Z,14.85
2022-12-15T23:19:49.488Z,15.50
2022-12-15T23:22:16.756Z,15.18
2022-12-15T23:24:44.062Z,14.32
2022-12-15T23:27:11.765Z,14.70
2022-12-15T23:29:39.100Z,15.05
2022-12-15T23:32:06.250Z,15.32
2022-12-15T23:34:33.167Z,16.05
2022-12-15T23:37:00.846Z,14.75
2022-12-15T23:39:27.823Z,15.10
2022-12-15T23:41:55.069Z,16.60
2022-12-15T23:44:21.972Z,15.88
2022-12-15T23:46:48.904Z,17.25
2022-12-15T23:49:15.861Z,15.70
2022-12-15T23:51:43.133Z,14.68
2022-12-15T23:54:10.280Z,15.90
2022-12-15T23:56:39.367Z,14.35
2022-12-15T23:59:07.040Z,14.70
